North Stratford, New Hampshire
Current Conditions -  °F | °C
As of 6:52 PM on Wednesday 28 Jan 2015 (Local Time) from KBML Reporting Station
Clear Clear  
Wind Chill:   Ceiling: Unl
Heat Index:   Visibility: 10mi
Dew Point: -5°   Wind: 0mph
Humidity: 72%   Direction: NA
Pressure: 30.13"   Gusts: NA
Location:  44.75°N, 71.63°W
Report Text: KBML 282352Z AUTO 00000KT 10SM CLR M17/M21 A3013 RMK AO2 SLP233 T11671206 11078 21178 51037
Loading
Personal Weather Stations






























Interactive Weather Map New forecast layout! Learn more

10-Day Weather Forecast

Advertisements
Track Severe Weather on mobile